createdAt,value
2018-08-22T00:00:10.015Z,1004.49
2018-08-22T00:01:10.020Z,1004.51
2018-08-22T00:02:10.016Z,1004.48
2018-08-22T00:03:10.018Z,1004.51
2018-08-22T00:04:10.018Z,1004.52
2018-08-22T00:05:10.019Z,1004.52
2018-08-22T00:06:10.022Z,1004.52
2018-08-22T00:07:10.022Z,1004.49
2018-08-22T00:08:10.021Z,1004.51
2018-08-22T00:09:10.023Z,1004.51
2018-08-22T00:10:10.023Z,1004.46
2018-08-22T00:11:10.024Z,1004.46
2018-08-22T00:12:10.022Z,1004.43
2018-08-22T00:13:10.027Z,1004.43
2018-08-22T00:14:10.023Z,1004.43
2018-08-22T00:15:10.080Z,1004.45
2018-08-22T00:16:10.026Z,1004.44
2018-08-22T00:17:10.027Z,1004.43
2018-08-22T00:18:10.027Z,1004.37
2018-08-22T00:19:10.027Z,1004.36
2018-08-22T00:20:10.026Z,1004.39
2018-08-22T00:21:10.033Z,1004.34
2018-08-22T00:22:10.028Z,1004.31
2018-08-22T00:23:10.028Z,1004.31
2018-08-22T00:24:10.031Z,1004.34
2018-08-22T00:25:10.029Z,1004.33
2018-08-22T00:26:10.031Z,1004.33
2018-08-22T00:27:10.031Z,1004.28
2018-08-22T00:28:10.034Z,1004.30
2018-08-22T00:29:10.097Z,1004.33
2018-08-22T00:30:10.034Z,1004.32
2018-08-22T00:31:10.034Z,1004.31
2018-08-22T00:32:10.034Z,1004.30
2018-08-22T00:33:10.034Z,1004.29
2018-08-22T00:34:10.035Z,1004.29
2018-08-22T00:35:10.034Z,1004.30
2018-08-22T00:36:10.035Z,1004.28
2018-08-22T00:37:10.038Z,1004.29
2018-08-22T00:38:10.040Z,1004.25
2018-08-22T00:39:10.037Z,1004.27
2018-08-22T00:40:10.041Z,1004.23
2018-08-22T00:41:10.037Z,1004.26
2018-08-22T00:42:10.038Z,1004.26
2018-08-22T00:43:10.042Z,1004.28
2018-08-22T00:44:10.039Z,1004.29
2018-08-22T00:45:10.041Z,1004.27
2018-08-22T00:46:10.041Z,1004.29
2018-08-22T00:47:10.039Z,1004.26
2018-08-22T00:48:10.041Z,1004.27
2018-08-22T00:49:10.043Z,1004.28
2018-08-22T00:50:10.043Z,1004.25
2018-08-22T00:51:10.044Z,1004.30
2018-08-22T00:52:10.044Z,1004.32
2018-08-22T00:53:10.043Z,1004.29
2018-08-22T00:54:10.047Z,1004.25
2018-08-22T00:55:10.050Z,1004.31
2018-08-22T00:56:10.048Z,1004.27
2018-08-22T00:57:10.046Z,1004.29
2018-08-22T00:58:10.048Z,1004.27
2018-08-22T00:59:10.046Z,1004.24
2018-08-22T01:00:10.045Z,1004.24
2018-08-22T01:01:10.047Z,1004.22
2018-08-22T01:02:10.049Z,1004.25
2018-08-22T01:03:10.049Z,1004.21
2018-08-22T01:04:10.047Z,1004.22
2018-08-22T01:05:10.049Z,1004.17
2018-08-22T01:06:10.051Z,1004.20
2018-08-22T01:07:10.048Z,1004.19
2018-08-22T01:08:10.049Z,1004.17
2018-08-22T01:09:10.049Z,1004.15
2018-08-22T01:10:10.052Z,1004.18
2018-08-22T01:11:10.053Z,1004.21
2018-08-22T01:12:10.050Z,1004.21
2018-08-22T01:13:10.052Z,1004.23
2018-08-22T01:14:10.050Z,1004.22
2018-08-22T01:15:10.051Z,1004.22
2018-08-22T01:16:10.053Z,1004.23
2018-08-22T01:17:10.052Z,1004.22
2018-08-22T01:18:10.052Z,1004.20
2018-08-22T01:19:10.051Z,1004.23
2018-08-22T01:20:10.052Z,1004.20
2018-08-22T01:21:10.055Z,1004.22
2018-08-22T01:22:10.054Z,1004.23
2018-08-22T01:23:10.053Z,1004.23
2018-08-22T01:24:10.054Z,1004.24
2018-08-22T01:25:10.055Z,1004.22
2018-08-22T01:26:10.055Z,1004.22
2018-08-22T01:27:10.054Z,1004.19
2018-08-22T01:28:10.059Z,1004.22
2018-08-22T01:29:10.053Z,1004.20
2018-08-22T01:30:10.061Z,1004.23
2018-08-22T01:31:10.061Z,1004.20
2018-08-22T01:32:10.056Z,1004.19
2018-08-22T01:33:10.055Z,1004.18
2018-08-22T01:34:10.056Z,1004.17
2018-08-22T01:35:10.054Z,1004.16
2018-08-22T01:36:10.055Z,1004.15
2018-08-22T01:37:10.057Z,1004.14
2018-08-22T01:38:10.067Z,1004.15
2018-08-22T01:39:10.057Z,1004.17
2018-08-22T01:40:10.056Z,1004.14
2018-08-22T01:41:10.058Z,1004.20
2018-08-22T01:42:10.057Z,1004.17
2018-08-22T01:43:10.056Z,1004.19
2018-08-22T01:44:10.058Z,1004.16
2018-08-22T01:45:10.057Z,1004.18
2018-08-22T01:46:10.057Z,1004.16
2018-08-22T01:47:10.059Z,1004.18
2018-08-22T01:48:10.057Z,1004.17
2018-08-22T01:49:10.057Z,1004.17
2018-08-22T01:50:10.058Z,1004.13
2018-08-22T01:51:10.056Z,1004.09
2018-08-22T01:52:10.058Z,1004.13
2018-08-22T01:53:10.059Z,1004.12
2018-08-22T01:54:10.062Z,1004.09
2018-08-22T01:55:10.058Z,1004.10
2018-08-22T01:56:10.059Z,1004.07
2018-08-22T01:57:10.060Z,1004.09
2018-08-22T01:58:10.067Z,1004.04
2018-08-22T01:59:10.057Z,1004.04
2018-08-22T02:00:10.064Z,1004.04
2018-08-22T02:01:10.059Z,1004.05
2018-08-22T02:02:10.060Z,1004.06
2018-08-22T02:03:10.088Z,1004.04
2018-08-22T02:04:10.058Z,1004.07
2018-08-22T02:05:10.060Z,1004.04
2018-08-22T02:06:10.063Z,1004.04
2018-08-22T02:07:10.059Z,1004.00
2018-08-22T02:08:10.058Z,1003.99
2018-08-22T02:09:10.060Z,1003.98
2018-08-22T02:10:10.060Z,1004.02
2018-08-22T02:11:10.059Z,1003.96
2018-08-22T02:12:10.057Z,1004.00
2018-08-22T02:13:10.059Z,1004.00
2018-08-22T02:14:10.059Z,1003.99
2018-08-22T02:15:10.059Z,1003.96
2018-08-22T02:16:10.061Z,1003.93
2018-08-22T02:17:10.060Z,1003.93
2018-08-22T02:18:10.063Z,1003.94
2018-08-22T02:19:10.065Z,1003.89
2018-08-22T02:20:10.059Z,1003.90
2018-08-22T02:21:10.059Z,1003.92
2018-08-22T02:22:10.060Z,1003.90
2018-08-22T02:23:10.058Z,1003.90
2018-08-22T02:24:10.060Z,1003.91
2018-08-22T02:25:10.097Z,1003.88
2018-08-22T02:26:10.059Z,1003.89
2018-08-22T02:27:10.063Z,1003.87
2018-08-22T02:28:10.077Z,1003.89
2018-08-22T02:29:10.059Z,1003.86
2018-08-22T02:30:10.059Z,1003.93
2018-08-22T02:31:10.059Z,1003.94
2018-08-22T02:32:10.061Z,1003.91
2018-08-22T02:33:10.060Z,1003.93
2018-08-22T02:34:10.059Z,1003.95
2018-08-22T02:35:10.073Z,1003.94
2018-08-22T02:36:10.059Z,1003.94
2018-08-22T02:37:10.065Z,1003.91
2018-08-22T02:38:10.060Z,1003.92
2018-08-22T02:39:10.058Z,1003.94
2018-08-22T02:40:10.058Z,1003.90
2018-08-22T02:41:10.058Z,1003.85
2018-08-22T02:42:10.130Z,1003.88
2018-08-22T02:43:10.063Z,1003.84
2018-08-22T02:44:10.059Z,1003.85
2018-08-22T02:45:10.058Z,1003.81
2018-08-22T02:46:10.058Z,1003.82
2018-08-22T02:47:10.057Z,1003.84
2018-08-22T02:48:10.057Z,1003.82
2018-08-22T02:49:10.056Z,1003.79
2018-08-22T02:50:10.057Z,1003.81
2018-08-22T02:51:10.057Z,1003.80
2018-08-22T02:52:10.055Z,1003.76
2018-08-22T02:53:10.055Z,1003.77
2018-08-22T02:54:10.056Z,1003.79
2018-08-22T02:55:10.056Z,1003.78
2018-08-22T02:56:10.059Z,1003.78
2018-08-22T02:57:10.058Z,1003.77
2018-08-22T02:58:10.056Z,1003.79
2018-08-22T02:59:10.054Z,1003.79
2018-08-22T03:00:10.054Z,1003.82
2018-08-22T03:01:10.054Z,1003.82
2018-08-22T03:02:10.055Z,1003.80
2018-08-22T03:03:10.053Z,1003.77
2018-08-22T03:04:10.054Z,1003.76
2018-08-22T03:05:10.054Z,1003.75
2018-08-22T03:06:10.056Z,1003.76
2018-08-22T03:07:10.058Z,1003.73
2018-08-22T03:08:10.056Z,1003.76
2018-08-22T03:09:10.052Z,1003.74
2018-08-22T03:10:10.059Z,1003.76
2018-08-22T03:11:10.054Z,1003.73
2018-08-22T03:12:10.051Z,1003.70
2018-08-22T03:13:10.052Z,1003.72
2018-08-22T03:14:10.051Z,1003.72
2018-08-22T03:15:10.052Z,1003.68
2018-08-22T03:16:10.095Z,1003.68
2018-08-22T03:17:10.054Z,1003.69
2018-08-22T03:18:38.019Z,1003.69
2018-08-22T03:19:10.050Z,1003.69
2018-08-22T03:20:10.049Z,1003.69
2018-08-22T03:21:10.051Z,1003.73
2018-08-22T03:22:10.049Z,1003.69
2018-08-22T03:23:10.049Z,1003.70
2018-08-22T03:24:10.052Z,1003.68
2018-08-22T03:25:10.048Z,1003.70
2018-08-22T03:26:10.092Z,1003.67
2018-08-22T03:27:10.048Z,1003.67
2018-08-22T03:28:10.047Z,1003.70
2018-08-22T03:29:10.048Z,1003.71
2018-08-22T03:30:10.047Z,1003.71
2018-08-22T03:31:10.055Z,1003.74
2018-08-22T03:32:10.059Z,1003.74
2018-08-22T03:33:10.047Z,1003.81
2018-08-22T03:34:10.046Z,1003.77
2018-08-22T03:35:10.045Z,1003.80
2018-08-22T03:36:10.046Z,1003.72
2018-08-22T03:37:10.043Z,1003.73
2018-08-22T03:38:10.045Z,1003.74
2018-08-22T03:39:10.043Z,1003.73
2018-08-22T03:40:10.045Z,1003.77
2018-08-22T03:41:10.043Z,1003.79
2018-08-22T03:42:10.043Z,1003.81
2018-08-22T03:43:10.043Z,1003.83
2018-08-22T03:44:10.042Z,1003.81
2018-08-22T03:45:10.041Z,1003.82
2018-08-22T03:46:10.041Z,1003.81
2018-08-22T03:47:10.046Z,1003.85
2018-08-22T03:48:10.046Z,1003.81
2018-08-22T03:49:10.041Z,1003.81
2018-08-22T03:50:10.039Z,1003.83
2018-08-22T03:51:10.045Z,1003.81
2018-08-22T03:52:10.039Z,1003.84
2018-08-22T03:53:10.038Z,1003.82
2018-08-22T03:54:10.038Z,1003.88
2018-08-22T03:55:10.038Z,1003.82
2018-08-22T03:56:10.037Z,1003.87
2018-08-22T03:57:10.040Z,1003.90
2018-08-22T03:58:10.036Z,1003.89
2018-08-22T03:59:10.036Z,1003.88
2018-08-22T04:00:10.040Z,1003.85
2018-08-22T04:01:10.038Z,1003.84
2018-08-22T04:02:10.037Z,1003.90
2018-08-22T04:03:10.042Z,1003.88
2018-08-22T04:04:10.035Z,1003.87
2018-08-22T04:05:10.033Z,1003.87
2018-08-22T04:06:10.038Z,1003.88
2018-08-22T04:07:10.034Z,1003.82
2018-08-22T04:08:10.033Z,1003.84
2018-08-22T04:09:10.036Z,1003.82
2018-08-22T04:10:10.034Z,1003.82
2018-08-22T04:11:10.031Z,1003.81
2018-08-22T04:12:10.031Z,1003.81
2018-08-22T04:13:10.031Z,1003.82
2018-08-22T04:14:10.035Z,1003.77
2018-08-22T04:15:10.030Z,1003.82
2018-08-22T04:16:10.029Z,1003.80
2018-08-22T04:17:10.031Z,1003.82
2018-08-22T04:18:10.035Z,1003.76
2018-08-22T04:19:10.028Z,1003.76
2018-08-22T04:20:10.027Z,1003.77
2018-08-22T04:21:10.033Z,1003.74
2018-08-22T04:22:10.028Z,1003.78
2018-08-22T04:23:10.029Z,1003.76
2018-08-22T04:24:10.026Z,1003.74
2018-08-22T04:25:10.027Z,1003.73
2018-08-22T04:26:10.027Z,1003.72
2018-08-22T04:27:10.024Z,1003.70
2018-08-22T04:28:10.028Z,1003.70
2018-08-22T04:29:10.024Z,1003.70
2018-08-22T04:30:10.024Z,1003.70
2018-08-22T04:31:10.023Z,1003.69
2018-08-22T04:32:10.023Z,1003.68
2018-08-22T04:33:10.022Z,1003.68
2018-08-22T04:34:10.022Z,1003.69
2018-08-22T04:35:10.021Z,1003.71
2018-08-22T04:36:10.021Z,1003.76
2018-08-22T04:37:10.021Z,1003.75
2018-08-22T04:38:11.261Z,1003.72
2018-08-22T04:39:10.020Z,1003.74
2018-08-22T04:40:10.019Z,1003.73
2018-08-22T04:41:10.020Z,1003.77
2018-08-22T04:42:10.019Z,1003.75
2018-08-22T04:43:10.017Z,1003.74
2018-08-22T04:44:10.018Z,1003.75
2018-08-22T04:45:10.017Z,1003.76
2018-08-22T04:46:10.017Z,1003.72
2018-08-22T04:47:10.018Z,1003.75
2018-08-22T04:48:10.067Z,1003.78
2018-08-22T04:49:10.017Z,1003.81
2018-08-22T04:50:10.016Z,1003.79
2018-08-22T04:51:10.014Z,1003.79
2018-08-22T04:52:10.015Z,1003.83
2018-08-22T04:53:10.013Z,1003.81
2018-08-22T04:54:10.014Z,1003.75
2018-08-22T04:55:10.012Z,1003.78
2018-08-22T04:56:10.012Z,1003.79
2018-08-22T04:57:10.011Z,1003.75
2018-08-22T04:58:10.023Z,1003.81
2018-08-22T04:59:10.012Z,1003.83
2018-08-22T05:00:10.010Z,1003.81
2018-08-22T05:01:10.019Z,1003.79
2018-08-22T05:02:10.014Z,1003.83
2018-08-22T05:03:10.010Z,1003.84
2018-08-22T05:04:10.011Z,1003.86
2018-08-22T05:05:10.011Z,1003.83
2018-08-22T05:06:10.013Z,1003.84
2018-08-22T05:07:10.011Z,1003.85
2018-08-22T05:08:10.009Z,1003.84
2018-08-22T05:09:10.012Z,1003.84
2018-08-22T05:10:10.009Z,1003.84
2018-08-22T05:11:10.012Z,1003.80
2018-08-22T05:12:10.009Z,1003.78
2018-08-22T05:13:10.013Z,1003.81
2018-08-22T05:14:10.046Z,1003.75
2018-08-22T05:15:10.011Z,1003.80
2018-08-22T05:16:10.010Z,1003.80
2018-08-22T05:17:10.009Z,1003.75
2018-08-22T05:18:10.010Z,1003.72
2018-08-22T05:19:10.010Z,1003.74
2018-08-22T05:20:10.009Z,1003.73
2018-08-22T05:21:10.010Z,1003.72
2018-08-22T05:22:10.010Z,1003.74
2018-08-22T05:23:10.012Z,1003.74
2018-08-22T05:24:10.013Z,1003.73
2018-08-22T05:25:10.013Z,1003.72
2018-08-22T05:26:10.014Z,1003.75
2018-08-22T05:27:10.013Z,1003.70
2018-08-22T05:28:10.012Z,1003.71
2018-08-22T05:29:10.010Z,1003.72
2018-08-22T05:30:10.014Z,1003.74
2018-08-22T05:31:10.011Z,1003.73
2018-08-22T05:32:10.012Z,1003.74
2018-08-22T05:33:10.013Z,1003.73
2018-08-22T05:34:10.013Z,1003.71
2018-08-22T05:35:10.012Z,1003.72
2018-08-22T05:36:10.017Z,1003.73
2018-08-22T05:37:10.014Z,1003.73
2018-08-22T05:38:10.015Z,1003.73
2018-08-22T05:39:10.014Z,1003.75
2018-08-22T05:40:10.016Z,1003.73
2018-08-22T05:41:10.015Z,1003.72
2018-08-22T05:42:10.017Z,1003.71
2018-08-22T05:43:10.017Z,1003.70
2018-08-22T05:44:10.018Z,1003.67
2018-08-22T05:45:10.038Z,1003.70
2018-08-22T05:46:10.022Z,1003.71
2018-08-22T05:47:10.021Z,1003.70
2018-08-22T05:48:10.021Z,1003.72
2018-08-22T05:49:10.040Z,1003.74
2018-08-22T05:50:10.023Z,1003.76
2018-08-22T05:51:10.025Z,1003.79
2018-08-22T05:52:10.036Z,1003.78
2018-08-22T05:53:10.027Z,1003.80
2018-08-22T05:54:10.027Z,1003.80
2018-08-22T05:55:10.028Z,1003.77
2018-08-22T05:56:10.028Z,1003.76
2018-08-22T05:57:10.029Z,1003.74
2018-08-22T05:58:10.062Z,1003.75
2018-08-22T05:59:10.031Z,1003.69
2018-08-22T06:00:10.032Z,1003.72
2018-08-22T06:01:10.033Z,1003.73
2018-08-22T06:02:10.038Z,1003.69
2018-08-22T06:03:10.042Z,1003.69
2018-08-22T06:04:10.036Z,1003.70
2018-08-22T06:05:10.038Z,1003.66
2018-08-22T06:06:10.038Z,1003.68
2018-08-22T06:07:10.040Z,1003.70
2018-08-22T06:08:10.040Z,1003.70
2018-08-22T06:09:10.102Z,1003.67
2018-08-22T06:10:10.051Z,1003.68
2018-08-22T06:11:10.041Z,1003.66
2018-08-22T06:12:10.044Z,1003.70
2018-08-22T06:13:10.048Z,1003.61
2018-08-22T06:14:10.047Z,1003.64
2018-08-22T06:15:10.046Z,1003.60
2018-08-22T06:16:10.048Z,1003.62
2018-08-22T06:17:10.050Z,1003.61
2018-08-22T06:18:10.055Z,1003.62
2018-08-22T06:19:10.052Z,1003.61
2018-08-22T06:20:10.052Z,1003.62
2018-08-22T06:21:10.056Z,1003.63
2018-08-22T06:22:10.053Z,1003.65
2018-08-22T06:23:10.058Z,1003.62
2018-08-22T06:24:10.055Z,1003.60
2018-08-22T06:25:10.056Z,1003.58
2018-08-22T06:26:10.060Z,1003.57
2018-08-22T06:27:10.064Z,1003.56
2018-08-22T06:28:10.060Z,1003.56
2018-08-22T06:29:10.065Z,1003.61
2018-08-22T06:30:10.061Z,1003.59
2018-08-22T06:31:10.061Z,1003.60
2018-08-22T06:32:10.063Z,1003.63
2018-08-22T06:33:10.068Z,1003.63
2018-08-22T06:34:10.139Z,1003.64
2018-08-22T06:35:10.068Z,1003.65
2018-08-22T06:36:10.070Z,1003.58
2018-08-22T06:37:10.069Z,1003.56
2018-08-22T06:38:10.069Z,1003.54
2018-08-22T06:39:10.097Z,1003.57
2018-08-22T06:40:10.072Z,1003.57
2018-08-22T06:41:10.086Z,1003.59
2018-08-22T06:42:10.078Z,1003.56
2018-08-22T06:43:10.075Z,1003.58
2018-08-22T06:44:10.086Z,1003.56
2018-08-22T06:45:10.092Z,1003.59
2018-08-22T06:46:10.078Z,1003.58
2018-08-22T06:47:10.080Z,1003.60
2018-08-22T06:48:10.080Z,1003.57
2018-08-22T06:49:10.124Z,1003.54
2018-08-22T06:50:10.098Z,1003.52
2018-08-22T06:51:10.086Z,1003.47
2018-08-22T06:52:10.087Z,1003.45
2018-08-22T06:53:10.086Z,1003.51
2018-08-22T06:54:10.107Z,1003.42
2018-08-22T06:55:10.117Z,1003.47
2018-08-22T06:56:10.089Z,1003.49
2018-08-22T06:57:10.124Z,1003.51
2018-08-22T06:58:10.092Z,1003.49
2018-08-22T06:59:10.102Z,1003.48
2018-08-22T07:00:10.093Z,1003.50
2018-08-22T07:01:10.095Z,1003.49
2018-08-22T07:02:10.097Z,1003.47
2018-08-22T07:03:10.101Z,1003.41
2018-08-22T07:04:10.096Z,1003.42
2018-08-22T07:05:10.099Z,1003.43
2018-08-22T07:06:10.101Z,1003.45
2018-08-22T07:07:10.119Z,1003.46
2018-08-22T07:08:10.208Z,1003.47
2018-08-22T07:09:10.105Z,1003.51
2018-08-22T07:10:10.108Z,1003.48
2018-08-22T07:11:10.114Z,1003.51
2018-08-22T07:12:10.108Z,1003.46
2018-08-22T07:13:10.109Z,1003.50
2018-08-22T07:14:10.297Z,1003.44
2018-08-22T07:15:10.124Z,1003.43
2018-08-22T07:16:10.112Z,1003.44
2018-08-22T07:17:10.116Z,1003.43
2018-08-22T07:18:10.118Z,1003.42
2018-08-22T07:19:10.116Z,1003.46
2018-08-22T07:20:10.118Z,1003.40
2018-08-22T07:21:10.156Z,1003.40
2018-08-22T07:22:10.121Z,1003.38
2018-08-22T07:23:10.122Z,1003.35
2018-08-22T07:24:10.127Z,1003.36
2018-08-22T07:25:10.126Z,1003.35
2018-08-22T07:26:10.136Z,1003.32
2018-08-22T07:27:10.134Z,1003.31
2018-08-22T07:28:10.128Z,1003.32
2018-08-22T07:29:10.131Z,1003.32
2018-08-22T07:30:10.224Z,1003.29
2018-08-22T07:31:10.136Z,1003.30
2018-08-22T07:32:10.133Z,1003.26
2018-08-22T07:33:10.135Z,1003.30
2018-08-22T07:34:10.138Z,1003.25
2018-08-22T07:35:10.138Z,1003.26
2018-08-22T07:36:10.144Z,1003.24
2018-08-22T07:37:10.147Z,1003.23
2018-08-22T07:38:10.142Z,1003.24
2018-08-22T07:39:10.145Z,1003.26
2018-08-22T07:40:10.146Z,1003.23
2018-08-22T07:41:10.148Z,1003.25
2018-08-22T07:42:10.280Z,1003.19
2018-08-22T07:43:10.167Z,1003.20
2018-08-22T07:44:10.168Z,1003.21
2018-08-22T07:45:10.155Z,1003.15
2018-08-22T07:46:10.159Z,1003.20
2018-08-22T07:47:10.188Z,1003.19
2018-08-22T07:48:10.159Z,1003.20
2018-08-22T07:49:10.164Z,1003.20
2018-08-22T07:50:10.221Z,1003.19
2018-08-22T07:51:10.167Z,1003.18
2018-08-22T07:52:10.166Z,1003.19
2018-08-22T07:53:10.177Z,1003.25
2018-08-22T07:54:10.217Z,1003.21
2018-08-22T07:55:10.173Z,1003.20
2018-08-22T07:56:10.179Z,1003.20
2018-08-22T07:57:10.176Z,1003.24
2018-08-22T07:58:10.178Z,1003.23
2018-08-22T07:59:10.181Z,1003.25
2018-08-22T08:00:10.264Z,1003.26
2018-08-22T08:01:10.183Z,1003.27
2018-08-22T08:02:10.186Z,1003.23
2018-08-22T08:03:10.192Z,1003.28
2018-08-22T08:04:10.192Z,1003.25
2018-08-22T08:05:10.196Z,1003.27
2018-08-22T08:06:10.242Z,1003.26
2018-08-22T08:07:10.195Z,1003.24
2018-08-22T08:08:10.198Z,1003.22
2018-08-22T08:09:10.201Z,1003.23
2018-08-22T08:10:10.206Z,1003.25
2018-08-22T08:11:10.203Z,1003.24
2018-08-22T08:12:10.211Z,1003.19
2018-08-22T08:13:10.209Z,1003.16
2018-08-22T08:14:10.211Z,1003.18
2018-08-22T08:15:10.212Z,1003.20
2018-08-22T08:16:10.215Z,1003.17
2018-08-22T08:17:10.239Z,1003.17
2018-08-22T08:18:10.236Z,1003.16
2018-08-22T08:19:10.224Z,1003.17
2018-08-22T08:20:10.225Z,1003.15
2018-08-22T08:21:10.226Z,1003.12
2018-08-22T08:22:10.231Z,1003.16
2018-08-22T08:23:10.232Z,1003.15
2018-08-22T08:24:10.236Z,1003.15
2018-08-22T08:25:10.236Z,1003.13
2018-08-22T08:26:10.258Z,1003.14
2018-08-22T08:27:10.241Z,1003.14
2018-08-22T08:28:10.248Z,1003.12
2018-08-22T08:29:10.248Z,1003.11
2018-08-22T08:30:10.250Z,1003.09
2018-08-22T08:31:10.255Z,1003.05
2018-08-22T08:32:10.267Z,1003.04
2018-08-22T08:33:10.257Z,1003.02
2018-08-22T08:34:10.260Z,1002.99
2018-08-22T08:35:10.264Z,1003.00
2018-08-22T08:36:10.269Z,1003.00
2018-08-22T08:37:10.267Z,1002.99
2018-08-22T08:38:10.271Z,1002.97
2018-08-22T08:39:10.272Z,1002.95
2018-08-22T08:40:10.276Z,1002.94
2018-08-22T08:41:10.327Z,1002.94
2018-08-22T08:42:10.300Z,1002.92
2018-08-22T08:43:10.507Z,1002.92
2018-08-22T08:44:10.286Z,1002.90
2018-08-22T08:45:10.288Z,1002.92
2018-08-22T08:46:10.299Z,1002.89
2018-08-22T08:47:10.293Z,1002.87
2018-08-22T08:48:10.298Z,1002.86
2018-08-22T08:49:10.300Z,1002.85
2018-08-22T08:50:10.304Z,1002.83
2018-08-22T08:51:10.322Z,1002.76
2018-08-22T08:52:10.363Z,1002.78
2018-08-22T08:53:10.310Z,1002.78
2018-08-22T08:54:10.318Z,1002.77
2018-08-22T08:55:10.316Z,1002.76
2018-08-22T08:56:10.323Z,1002.73
2018-08-22T08:57:10.349Z,1002.75
2018-08-22T08:58:10.326Z,1002.73
2018-08-22T08:59:10.328Z,1002.74
2018-08-22T09:00:10.331Z,1002.71
2018-08-22T09:01:10.392Z,1002.73
2018-08-22T09:02:10.341Z,1002.74
2018-08-22T09:03:10.338Z,1002.72
2018-08-22T09:04:10.366Z,1002.71
2018-08-22T09:05:10.347Z,1002.68
2018-08-22T09:06:10.355Z,1002.67
2018-08-22T09:07:10.357Z,1002.65
2018-08-22T09:08:10.357Z,1002.64
2018-08-22T09:09:10.372Z,1002.61
2018-08-22T09:10:10.363Z,1002.60
2018-08-22T09:11:10.402Z,1002.61
2018-08-22T09:12:10.376Z,1002.62
2018-08-22T09:13:10.372Z,1002.58
2018-08-22T09:14:10.375Z,1002.60
2018-08-22T09:15:10.380Z,1002.57
2018-08-22T09:16:10.386Z,1002.54
2018-08-22T09:17:10.414Z,1002.53
2018-08-22T09:18:10.390Z,1002.52
2018-08-22T09:19:10.391Z,1002.53
2018-08-22T09:20:10.395Z,1002.55
2018-08-22T09:21:10.460Z,1002.53
2018-08-22T09:22:10.402Z,1002.48
2018-08-22T09:23:10.409Z,1002.45
2018-08-22T09:24:10.473Z,1002.48
2018-08-22T09:25:10.426Z,1002.39
2018-08-22T09:26:10.417Z,1002.41
2018-08-22T09:27:10.422Z,1002.38
2018-08-22T09:28:10.501Z,1002.42
2018-08-22T09:29:10.428Z,1002.40
2018-08-22T09:30:10.440Z,1002.40
2018-08-22T09:31:10.502Z,1002.37
2018-08-22T09:32:10.439Z,1002.36
2018-08-22T09:33:10.446Z,1002.40
2018-08-22T09:34:10.450Z,1002.35
2018-08-22T09:35:10.453Z,1002.37
2018-08-22T09:36:10.465Z,1002.39
2018-08-22T09:37:10.462Z,1002.36
2018-08-22T09:38:10.462Z,1002.38
2018-08-22T09:39:10.466Z,1002.36
2018-08-22T09:40:10.530Z,1002.32
2018-08-22T09:41:10.476Z,1002.31
2018-08-22T09:42:10.479Z,1002.30
2018-08-22T09:43:10.485Z,1002.29
2018-08-22T09:44:10.486Z,1002.31
2018-08-22T09:45:10.488Z,1002.27
2018-08-22T09:46:10.493Z,1002.25
2018-08-22T09:47:10.518Z,1002.29
2018-08-22T09:48:10.501Z,1002.20
2018-08-22T09:49:10.509Z,1002.17
2018-08-22T09:50:10.510Z,1002.19
2018-08-22T09:51:10.513Z,1002.18
2018-08-22T09:52:10.517Z,1002.16
2018-08-22T09:53:10.521Z,1002.16
2018-08-22T09:54:10.535Z,1002.14
2018-08-22T09:55:10.529Z,1002.15
2018-08-22T09:56:10.535Z,1002.09
2018-08-22T09:57:10.537Z,1002.09
2018-08-22T09:58:10.564Z,1002.10
2018-08-22T09:59:10.548Z,1002.07
2018-08-22T10:00:10.558Z,1002.08
2018-08-22T10:01:10.561Z,1002.07
2018-08-22T10:02:10.559Z,1002.09
2018-08-22T10:03:10.565Z,1002.08
2018-08-22T10:04:10.573Z,1002.05
2018-08-22T10:05:10.575Z,1002.05
2018-08-22T10:06:10.579Z,1002.04
2018-08-22T10:07:10.658Z,1002.01
2018-08-22T10:08:10.586Z,1002.03
2018-08-22T10:09:10.592Z,1002.05
2018-08-22T10:10:10.596Z,1002.02
2018-08-22T10:11:10.598Z,1002.00
2018-08-22T10:12:10.604Z,1002.00
2018-08-22T10:13:10.608Z,1001.96
2018-08-22T10:14:10.616Z,1001.95
2018-08-22T10:15:10.614Z,1001.94
2018-08-22T10:16:10.623Z,1001.92
2018-08-22T10:17:10.644Z,1001.91
2018-08-22T10:18:10.629Z,1001.93
2018-08-22T10:19:10.640Z,1001.92
2018-08-22T10:20:10.642Z,1001.93
2018-08-22T10:21:10.647Z,1001.88
2018-08-22T10:22:10.646Z,1001.92
2018-08-22T10:23:10.651Z,1001.88
2018-08-22T10:24:10.655Z,1001.85
2018-08-22T10:25:10.661Z,1001.84
2018-08-22T10:26:10.665Z,1001.81
2018-08-22T10:27:10.693Z,1001.75
2018-08-22T10:28:10.673Z,1001.77
2018-08-22T10:29:10.677Z,1001.79
2018-08-22T10:30:10.685Z,1001.76
2018-08-22T10:31:10.684Z,1001.74
2018-08-22T10:32:10.690Z,1001.75
2018-08-22T10:33:10.695Z,1001.79
2018-08-22T10:34:10.702Z,1001.75
2018-08-22T10:35:10.712Z,1001.79
2018-08-22T10:36:10.707Z,1001.77
2018-08-22T10:37:10.713Z,1001.77
2018-08-22T10:38:10.725Z,1001.80
2018-08-22T10:39:10.719Z,1001.75
2018-08-22T10:40:10.724Z,1001.73
2018-08-22T10:41:10.729Z,1001.76
2018-08-22T10:42:10.737Z,1001.75
2018-08-22T10:43:10.742Z,1001.75
2018-08-22T10:44:10.741Z,1001.75
2018-08-22T10:45:10.748Z,1001.70
2018-08-22T10:46:10.755Z,1001.69
2018-08-22T10:47:10.779Z,1001.70
2018-08-22T10:48:10.763Z,1001.67
2018-08-22T10:49:10.764Z,1001.66
2018-08-22T10:50:10.769Z,1001.66
2018-08-22T10:51:10.776Z,1001.63
2018-08-22T10:52:10.781Z,1001.63
2018-08-22T10:53:10.785Z,1001.61
2018-08-22T10:54:10.812Z,1001.61
2018-08-22T10:55:10.791Z,1001.62
2018-08-22T10:56:10.796Z,1001.61
2018-08-22T10:57:10.802Z,1001.61
2018-08-22T10:58:10.808Z,1001.58
2018-08-22T10:59:10.809Z,1001.58
2018-08-22T11:00:10.815Z,1001.56
2018-08-22T11:01:10.820Z,1001.53
2018-08-22T11:02:10.824Z,1001.58
2018-08-22T11:03:10.830Z,1001.55
2018-08-22T11:04:10.833Z,1001.54
2018-08-22T11:05:10.867Z,1001.53
2018-08-22T11:06:10.842Z,1001.53
2018-08-22T11:07:10.848Z,1001.49
2018-08-22T11:08:11.000Z,1001.53
2018-08-22T11:09:10.859Z,1001.51
2018-08-22T11:10:10.866Z,1001.49
2018-08-22T11:11:10.864Z,1001.50
2018-08-22T11:12:10.870Z,1001.48
2018-08-22T11:13:10.874Z,1001.48
2018-08-22T11:14:10.881Z,1001.49
2018-08-22T11:15:10.882Z,1001.51
2018-08-22T11:16:10.931Z,1001.45
2018-08-22T11:17:10.893Z,1001.46
2018-08-22T11:18:10.899Z,1001.45
2018-08-22T11:19:11.004Z,1001.48
2018-08-22T11:20:10.907Z,1001.44
2018-08-22T11:21:10.914Z,1001.48
2018-08-22T11:22:10.921Z,1001.45
2018-08-22T11:23:10.925Z,1001.47
2018-08-22T11:24:10.927Z,1001.42
2018-08-22T11:25:10.932Z,1001.41
2018-08-22T11:26:10.939Z,1001.41
2018-08-22T11:27:10.942Z,1001.40
2018-08-22T11:28:10.945Z,1001.42
2018-08-22T11:29:10.992Z,1001.40
2018-08-22T11:30:10.955Z,1001.39
2018-08-22T11:31:10.961Z,1001.41
2018-08-22T11:32:10.965Z,1001.34
2018-08-22T11:33:10.969Z,1001.35
2018-08-22T11:34:10.974Z,1001.34
2018-08-22T11:35:10.996Z,1001.35
2018-08-22T11:36:10.987Z,1001.29
2018-08-22T11:37:10.997Z,1001.27
2018-08-22T11:38:10.995Z,1001.30
2018-08-22T11:39:11.184Z,1001.31
2018-08-22T11:40:11.002Z,1001.29
2018-08-22T11:41:11.014Z,1001.26
2018-08-22T11:42:11.012Z,1001.22
2018-08-22T11:43:11.016Z,1001.22
2018-08-22T11:44:11.025Z,1001.15
2018-08-22T11:45:11.028Z,1001.17
2018-08-22T11:46:11.032Z,1001.18
2018-08-22T11:47:11.038Z,1001.18
2018-08-22T11:48:11.044Z,1001.15
2018-08-22T11:49:11.046Z,1001.23
2018-08-22T11:50:11.050Z,1001.23
2018-08-22T11:51:11.055Z,1001.19
2018-08-22T11:52:11.066Z,1001.18
2018-08-22T11:53:11.069Z,1001.14
2018-08-22T11:54:11.071Z,1001.19
2018-08-22T11:55:11.074Z,1001.15
2018-08-22T11:56:11.105Z,1001.17
2018-08-22T11:57:11.085Z,1001.15
2018-08-22T11:58:11.090Z,1001.13
2018-08-22T11:59:11.094Z,1001.14
2018-08-22T12:00:11.099Z,1001.13
2018-08-22T12:01:11.106Z,1001.14
2018-08-22T12:02:11.117Z,1001.15
2018-08-22T12:03:11.120Z,1001.17
2018-08-22T12:04:11.118Z,1001.16
2018-08-22T12:05:11.123Z,1001.13